Time;durP1;ratioP1;P1;durP2;ratioP2;P2;SDS_P1;SDS_P2;PMS_P1;PMS_P2;Temp;Humidity;BMP_temperature;BMP_pressure;BME280_temperature;BME280_humidity;BME280_pressure;Samples;Min_cycle;Max_cycle;Signal;HPM_P1;HPM_P2
2023/05/02 00:00:12;;;;;;;5.60;5.20;;;;;;;9.98;100.00;100439.59;5026507;28;20187;-77
2023/05/02 00:02:37;;;;;;;5.70;5.40;;;;;;;10.03;100.00;100445.56;5006895;28;20227;-76
2023/05/02 00:05:04;;;;;;;5.53;5.13;;;;;;;10.07;100.00;100442.97;5010331;28;20187;-76
2023/05/02 00:07:29;;;;;;;5.70;5.30;;;;;;;10.12;100.00;100437.78;5009310;28;20204;-77
2023/05/02 00:09:55;;;;;;;6.03;5.53;;;;;;;10.16;100.00;100436.03;5025493;28;20198;-77
2023/05/02 00:12:20;;;;;;;6.33;5.93;;;;;;;10.20;100.00;100438.59;5027441;28;20667;-77
2023/05/02 00:14:45;;;;;;;5.77;5.37;;;;;;;10.24;100.00;100438.59;5008339;28;20183;-76
2023/05/02 00:17:18;;;;;;;5.90;5.50;;;;;;;10.27;100.00;100434.25;5026181;28;20176;-76
2023/05/02 00:19:44;;;;;;;6.20;5.80;;;;;;;10.27;100.00;100436.84;5027683;28;20187;-78
2023/05/02 00:22:09;;;;;;;5.67;5.27;;;;;;;10.28;100.00;100428.22;5026570;28;20453;-75
2023/05/02 00:24:35;;;;;;;6.10;5.70;;;;;;;10.29;100.00;100431.66;5028523;28;20742;-77
2023/05/02 00:27:00;;;;;;;6.07;5.67;;;;;;;10.30;100.00;100438.53;5025360;28;20203;-77
2023/05/02 00:29:26;;;;;;;5.40;5.00;;;;;;;10.30;100.00;100439.41;5009930;28;20685;-77
2023/05/02 00:31:51;;;;;;;5.93;5.53;;;;;;;10.30;100.00;100439.41;5023240;28;20268;-76
2023/05/02 00:34:17;;;;;;;5.43;5.13;;;;;;;10.32;100.00;100439.41;5011147;28;20230;-77
2023/05/02 00:36:42;;;;;;;5.93;5.53;;;;;;;10.31;100.00;100435.97;5009661;28;20207;-77
2023/05/02 00:39:07;;;;;;;5.60;5.30;;;;;;;10.29;100.00;100436.81;5028434;28;20206;-76
2023/05/02 00:41:32;;;;;;;5.57;5.23;;;;;;;10.26;100.00;100435.13;5008553;28;20298;-76
2023/05/02 00:43:58;;;;;;;5.97;5.47;;;;;;;10.22;100.00;100434.28;5004498;28;20270;-77
2023/05/02 00:46:23;;;;;;;6.70;6.30;;;;;;;10.24;100.00;100433.41;5006888;28;20246;-77
2023/05/02 00:48:49;;;;;;;5.97;5.57;;;;;;;10.23;100.00;100435.13;5023036;28;20187;-77
2023/05/02 00:51:15;;;;;;;5.70;5.23;;;;;;;10.18;100.00;100435.16;5026156;28;20250;-77
2023/05/02 00:53:40;;;;;;;5.73;5.23;;;;;;;10.15;100.00;100431.75;5011610;28;20245;-76
2023/05/02 00:56:08;;;;;;;6.13;5.73;;;;;;;10.10;100.00;100439.53;5014208;28;20180;-76
2023/05/02 00:58:34;;;;;;;6.00;5.60;;;;;;;10.07;100.00;100440.38;5024405;28;20176;-77
2023/05/02 01:01:44;;;;;;;5.87;5.47;;;;;;;10.07;100.00;100436.94;5027578;28;20691;-77
2023/05/02 01:04:21;;;;;;;6.00;5.60;;;;;;;10.01;100.00;100437.84;5002529;28;20203;-76
2023/05/02 01:07:08;;;;;;;5.83;5.43;;;;;;;10.00;100.00;100445.59;5008093;28;20210;-76
2023/05/02 01:10:01;;;;;;;5.87;5.47;;;;;;;9.99;100.00;100443.84;5025097;28;20660;-76
2023/05/02 01:12:33;;;;;;;6.07;5.67;;;;;;;9.96;100.00;100447.31;5024759;28;20254;-76
2023/05/02 01:15:04;;;;;;;6.43;5.93;;;;;;;9.93;100.00;100444.75;5025081;28;20179;-76
2023/05/02 01:17:31;;;;;;;6.03;5.63;;;;;;;9.90;100.00;100442.19;5004002;28;20199;-76
2023/05/02 01:20:01;;;;;;;6.20;5.80;;;;;;;9.88;100.00;100442.19;5025847;28;20189;-77
2023/05/02 01:22:28;;;;;;;5.70;5.30;;;;;;;9.85;100.00;100451.69;5025409;28;20216;-76
2023/05/02 01:25:15;;;;;;;6.00;5.60;;;;;;;9.81;100.00;100449.97;5026598;28;20184;-76
2023/05/02 01:28:11;;;;;;;6.60;6.20;;;;;;;9.76;100.00;100447.41;5026686;28;20212;-75
2023/05/02 01:30:40;;;;;;;6.07;5.67;;;;;;;9.70;100.00;100453.44;5024227;28;20198;-76
2023/05/02 01:33:09;;;;;;;5.97;5.57;;;;;;;9.69;100.00;100456.91;5023858;28;20704;-76
2023/05/02 01:35:36;;;;;;;6.60;6.10;;;;;;;9.68;100.00;100452.59;5024906;28;20765;-76
2023/05/02 01:38:04;;;;;;;6.10;5.70;;;;;;;9.65;100.00;100446.56;5024923;28;20180;-76
2023/05/02 01:40:32;;;;;;;6.43;6.03;;;;;;;9.63;100.00;100461.22;5007955;28;20618;-76
2023/05/02 01:42:58;;;;;;;6.00;5.60;;;;;;;9.59;100.00;100461.22;5008031;28;20547;-77
2023/05/02 01:45:24;;;;;;;6.03;5.63;;;;;;;9.57;100.00;100459.50;5004669;28;20674;-76
2023/05/02 01:47:51;;;;;;;6.30;5.90;;;;;;;9.55;100.00;100464.66;5024594;28;20211;-76
2023/05/02 01:50:20;;;;;;;6.63;6.13;;;;;;;9.53;100.00;100471.56;5023957;28;20560;-76
2023/05/02 01:52:48;;;;;;;6.50;6.10;;;;;;;9.49;100.00;100467.28;5023869;28;20273;-78
2023/05/02 01:55:16;;;;;;;6.63;6.13;;;;;;;9.47;100.00;100469.00;5022792;28;20256;-77
2023/05/02 01:57:44;;;;;;;6.20;5.80;;;;;;;9.44;100.00;100476.75;5023990;28;20175;-76
2023/05/02 02:00:11;;;;;;;6.53;6.13;;;;;;;9.42;100.00;100488.81;5024200;28;20316;-76
2023/05/02 02:02:40;;;;;;;6.80;6.30;;;;;;;9.40;100.00;100487.94;5023284;28;20207;-76
2023/05/02 02:05:06;;;;;;;6.37;5.87;;;;;;;9.37;100.00;100493.13;5023975;28;20206;-77
2023/05/02 02:07:32;;;;;;;6.53;6.03;;;;;;;9.35;100.00;100500.88;5022733;28;20207;-76
2023/05/02 02:09:58;;;;;;;6.33;5.93;;;;;;;9.33;100.00;100512.91;5007498;28;20678;-75
2023/05/02 02:12:27;;;;;;;7.50;6.80;;;;;;;9.30;100.00;100510.34;5025132;28;20203;-76
2023/05/02 02:14:59;;;;;;;5.87;5.47;;;;;;;9.25;100.00;100520.66;5021570;28;20179;-76
2023/05/02 02:17:31;;;;;;;5.80;5.40;;;;;;;9.23;100.00;100526.69;5023718;28;20191;-77
2023/05/02 02:20:00;;;;;;;6.63;6.13;;;;;;;9.21;100.00;100525.81;5023301;28;20190;-76
2023/05/02 02:22:27;;;;;;;6.73;6.13;;;;;;;9.20;100.00;100529.28;5027007;28;20217;-77
2023/05/02 02:24:53;;;;;;;7.53;7.03;;;;;;;9.22;100.00;100538.75;5026629;28;20233;-76
2023/05/02 02:27:19;;;;;;;7.50;7.00;;;;;;;9.24;100.00;100531.84;5011176;28;20281;-76
2023/05/02 02:29:44;;;;;;;7.53;6.97;;;;;;;9.28;100.00;100537.91;5008266;28;20198;-78
2023/05/02 02:32:10;;;;;;;8.00;7.33;;;;;;;9.28;100.00;100535.31;5025159;28;20223;-77
2023/05/02 02:34:35;;;;;;;7.73;7.10;;;;;;;9.27;100.00;100529.28;5023530;28;20187;-76
2023/05/02 02:37:10;;;;;;;7.97;7.27;;;;;;;9.29;100.00;100534.47;5026181;28;20186;-77
2023/05/02 02:39:43;;;;;;;7.30;6.80;;;;;;;9.28;100.00;100543.06;5022712;28;20764;-77
2023/05/02 02:42:42;;;;;;;7.83;7.23;;;;;;;9.30;100.00;100539.59;5024299;28;20207;-76
2023/05/02 02:45:17;;;;;;;7.87;7.33;;;;;;;9.33;100.00;100540.47;5024291;28;20314;-75
2023/05/02 02:47:49;;;;;;;8.10;7.60;;;;;;;9.36;100.00;100533.59;5007731;28;20249;-75
2023/05/02 02:50:45;;;;;;;8.00;7.50;;;;;;;9.37;100.00;100537.03;5026381;28;20244;-77
2023/05/02 02:53:24;;;;;;;7.70;7.20;;;;;;;9.35;100.00;100539.59;5006015;28;20203;-76
2023/05/02 02:55:59;;;;;;;7.53;7.00;;;;;;;9.33;100.00;100540.47;5004248;28;20191;-77
2023/05/02 02:58:24;;;;;;;7.17;6.67;;;;;;;9.33;100.00;100545.66;5003919;28;20195;-78
2023/05/02 03:00:50;;;;;;;7.33;6.83;;;;;;;9.32;100.00;100547.34;4997315;28;20205;-77
2023/05/02 03:03:17;;;;;;;7.60;7.10;;;;;;;9.32;100.00;100551.66;5006357;28;20218;-77
2023/05/02 03:05:43;;;;;;;7.53;7.03;;;;;;;9.32;100.00;100552.50;5024330;28;20188;-77
2023/05/02 03:08:09;;;;;;;6.73;6.27;;;;;;;9.35;100.00;100559.44;5018915;28;20207;-76
2023/05/02 03:10:34;;;;;;;7.00;6.50;;;;;;;9.35;100.00;100562.84;5026736;28;20213;-77
2023/05/02 03:13:00;;;;;;;6.93;6.40;;;;;;;9.40;100.00;100568.91;5028152;28;20290;-77
2023/05/02 03:15:50;;;;;;;6.90;6.50;;;;;;;9.46;100.00;100575.78;5030286;28;20244;-76
2023/05/02 03:18:15;;;;;;;6.83;6.43;;;;;;;9.52;100.00;100577.50;5024654;28;20191;-76
2023/05/02 03:20:40;;;;;;;7.40;6.90;;;;;;;9.59;100.00;100579.22;5029561;28;20191;-77
2023/05/02 03:23:06;;;;;;;7.07;6.57;;;;;;;9.64;100.00;100576.66;5029875;28;20211;-77
2023/05/02 03:25:31;;;;;;;7.20;6.70;;;;;;;9.67;100.00;100580.06;5011511;28;20329;-77
2023/05/02 03:27:57;;;;;;;7.07;6.60;;;;;;;9.70;100.00;100580.09;5023563;28;20262;-77
2023/05/02 03:30:22;;;;;;;7.27;6.57;;;;;;;9.73;100.00;100579.22;5030515;28;20191;-76
2023/05/02 03:32:48;;;;;;;7.10;6.57;;;;;;;9.75;100.00;100580.94;5030456;28;20214;-76
2023/05/02 03:35:13;;;;;;;7.10;6.60;;;;;;;9.78;100.00;100580.06;5028496;28;20639;-77
2023/05/02 03:37:38;;;;;;;7.00;6.50;;;;;;;9.79;100.00;100579.22;5008182;28;20179;-77
2023/05/02 03:40:04;;;;;;;7.30;6.80;;;;;;;9.82;100.00;100583.50;5027771;28;20270;-76
2023/05/02 03:42:30;;;;;;;7.43;6.93;;;;;;;9.84;100.00;100584.38;5027099;28;20235;-77
2023/05/02 03:44:55;;;;;;;7.37;6.83;;;;;;;9.84;100.00;100579.22;5010880;28;20763;-77
2023/05/02 03:47:20;;;;;;;8.40;7.80;;;;;;;9.83;100.00;100580.06;5007468;28;20828;-76
2023/05/02 03:49:46;;;;;;;7.53;7.03;;;;;;;9.81;100.00;100582.66;5009689;28;20197;-76
2023/05/02 03:52:11;;;;;;;7.83;7.23;;;;;;;9.78;100.00;100582.66;5026402;28;20726;-75
2023/05/02 03:54:37;;;;;;;8.13;7.53;;;;;;;9.71;100.00;100584.38;5012084;28;20176;-76
2023/05/02 03:57:03;;;;;;;8.07;7.47;;;;;;;9.63;100.00;100577.50;5011484;28;20187;-76
2023/05/02 03:59:32;;;;;;;7.37;6.87;;;;;;;9.53;100.00;100577.47;5027583;28;20266;-75
2023/05/02 04:01:57;;;;;;;7.37;6.87;;;;;;;9.43;100.00;100589.56;5026898;28;20215;-76
2023/05/02 04:04:23;;;;;;;7.57;6.97;;;;;;;9.39;100.00;100582.66;5023599;28;20194;-77
2023/05/02 04:06:48;;;;;;;7.13;6.63;;;;;;;9.35;100.00;100593.00;5027444;28;20667;-77
2023/05/02 04:09:13;;;;;;;7.50;6.90;;;;;;;9.33;100.00;100603.31;5027410;28;20187;-77
2023/05/02 04:11:39;;;;;;;6.87;6.47;;;;;;;9.29;100.00;100604.19;5028076;28;20290;-76
2023/05/02 04:14:04;;;;;;;7.43;6.93;;;;;;;9.27;100.00;100617.09;5003337;28;20330;-76
2023/05/02 04:16:29;;;;;;;7.87;7.30;;;;;;;9.23;100.00;100617.06;5009566;28;20218;-77
2023/05/02 04:18:55;;;;;;;6.70;6.30;;;;;;;9.20;100.00;100622.22;5027371;28;20191;-76
2023/05/02 04:21:20;;;;;;;6.77;6.37;;;;;;;9.18;100.00;100616.19;5027327;28;20216;-75
2023/05/02 04:23:46;;;;;;;6.73;6.27;;;;;;;9.18;100.00;100624.81;5023343;28;20187;-76
2023/05/02 04:26:11;;;;;;;7.40;6.90;;;;;;;9.18;100.00;100627.41;5007308;28;20306;-76
2023/05/02 04:28:36;;;;;;;7.80;7.20;;;;;;;9.19;100.00;100628.25;5030190;28;20203;-76
2023/05/02 04:31:03;;;;;;;7.60;7.10;;;;;;;9.21;100.00;100630.00;5029001;28;20210;-77
2023/05/02 04:33:29;;;;;;;7.07;6.57;;;;;;;9.25;100.00;100634.28;5028420;28;20184;-77
2023/05/02 04:35:54;;;;;;;7.77;7.23;;;;;;;9.30;100.00;100642.91;5025179;28;21068;-77
2023/05/02 04:38:20;;;;;;;7.77;7.07;;;;;;;9.34;100.00;100643.78;5011508;28;20204;-76
2023/05/02 04:40:45;;;;;;;7.60;6.90;;;;;;;9.40;100.00;100645.50;5027396;28;20191;-76
2023/05/02 04:43:11;;;;;;;7.17;6.67;;;;;;;9.44;100.00;100647.25;5028195;28;20211;-77
2023/05/02 04:45:36;;;;;;;7.50;6.80;;;;;;;9.50;100.00;100657.59;5009741;28;20179;-77
2023/05/02 04:48:02;;;;;;;7.50;6.90;;;;;;;9.61;100.00;100667.94;5025618;28;20324;-76
2023/05/02 04:50:28;;;;;;;7.40;6.70;;;;;;;9.72;100.00;100668.81;5027690;28;20249;-76
2023/05/02 04:52:53;;;;;;;6.50;5.90;;;;;;;9.83;100.00;100667.94;5026278;28;20290;-76
2023/05/02 04:55:19;;;;;;;6.63;6.13;;;;;;;9.92;100.00;100670.53;5010649;28;20198;-76
2023/05/02 04:57:44;;;;;;;7.60;7.00;;;;;;;10.00;100.00;100670.53;5026996;28;20183;-77
2023/05/02 05:00:10;;;;;;;6.17;5.67;;;;;;;10.12;100.00;100680.88;5026085;28;20203;-76
2023/05/02 05:02:36;;;;;;;6.50;6.00;;;;;;;10.26;100.00;100678.28;5021914;28;20214;-76
2023/05/02 05:05:01;;;;;;;6.47;5.97;;;;;;;10.41;100.00;100692.94;5028293;28;20183;-76
2023/05/02 05:07:26;;;;;;;6.20;5.70;;;;;;;10.49;100.00;100688.59;5009831;28;20298;-76
2023/05/02 05:09:52;;;;;;;5.53;5.17;;;;;;;10.56;100.00;100698.97;5025676;28;20560;-77
2023/05/02 05:12:18;;;;;;;5.97;5.57;;;;;;;10.60;100.00;100693.75;5028000;28;20317;-77
2023/05/02 05:14:43;;;;;;;5.37;5.07;;;;;;;10.60;100.00;100700.66;5002193;28;20566;-76
2023/05/02 05:17:08;;;;;;;6.77;6.27;;;;;;;10.60;100.00;100698.94;5030022;28;20180;-76
2023/05/02 05:19:34;;;;;;;5.73;5.33;;;;;;;10.58;100.00;100702.41;5025405;28;20206;-76
2023/05/02 05:21:59;;;;;;;5.83;5.43;;;;;;;10.58;100.00;100710.19;5004531;28;20231;-77
2023/05/02 05:24:25;;;;;;;5.73;5.33;;;;;;;10.58;100.00;100720.53;5023541;28;20228;-76
2023/05/02 05:26:50;;;;;;;6.10;5.60;;;;;;;10.60;100.00;100723.94;5023629;28;20211;-76
2023/05/02 05:29:17;;;;;;;5.77;5.37;;;;;;;10.63;100.00;100726.53;5015423;28;20219;-78
2023/05/02 05:31:42;;;;;;;5.70;5.30;;;;;;;10.66;100.00;100722.22;5008706;28;20215;-76
2023/05/02 05:34:08;;;;;;;6.20;5.70;;;;;;;10.73;100.00;100729.97;5022055;28;20189;-77
2023/05/02 05:36:33;;;;;;;5.17;4.77;;;;;;;10.78;100.00;100726.50;5027840;28;20277;-77
2023/05/02 05:38:58;;;;;;;5.30;4.90;;;;;;;10.88;100.00;100735.09;5027774;28;20294;-76
2023/05/02 05:41:24;;;;;;;4.80;4.50;;;;;;;10.95;100.00;100743.72;5010291;28;20211;-76
2023/05/02 05:43:49;;;;;;;4.80;4.50;;;;;;;11.00;100.00;100743.69;4993571;28;20530;-76
2023/05/02 05:46:14;;;;;;;5.30;4.90;;;;;;;11.05;100.00;100745.41;5009877;28;20919;-75
2023/05/02 05:48:40;;;;;;;4.80;4.50;;;;;;;11.15;100.00;100750.56;5027183;28;20194;-76
2023/05/02 05:51:05;;;;;;;4.70;4.27;;;;;;;11.24;100.00;100747.91;5025152;28;20191;-76
2023/05/02 05:53:31;;;;;;;7.30;6.70;;;;;;;11.39;100.00;100747.00;5027774;28;20198;-77
2023/05/02 05:55:56;;;;;;;10.40;9.40;;;;;;;11.60;100.00;100748.63;5003295;28;20179;-76
2023/05/02 05:58:22;;;;;;;14.13;12.63;;;;;;;11.83;100.00;100760.56;5027883;28;20558;-77
2023/05/02 06:00:48;;;;;;;14.50;13.00;;;;;;;11.99;100.00;100754.44;5013478;28;20192;-76
2023/05/02 06:03:13;;;;;;;12.47;10.80;;;;;;;12.10;100.00;100746.56;5023798;28;20216;-76
2023/05/02 06:05:38;;;;;;;12.63;11.33;;;;;;;12.18;100.00;100749.94;5005729;28;20745;-76
2023/05/02 06:08:04;;;;;;;13.97;12.57;;;;;;;12.24;100.00;100745.59;5027117;28;20925;-76
2023/05/02 06:10:30;;;;;;;12.87;11.77;;;;;;;12.33;100.00;100750.69;5002649;28;20728;-77
2023/05/02 06:12:56;;;;;;;9.43;8.63;;;;;;;12.42;100.00;100749.75;5009673;28;20210;-77
2023/05/02 06:15:21;;;;;;;8.57;7.87;;;;;;;12.50;100.00;100756.59;5026961;28;20564;-77
2023/05/02 06:17:47;;;;;;;8.13;7.53;;;;;;;12.61;100.00;100753.06;5029446;28;20194;-77
2023/05/02 06:20:12;;;;;;;7.87;7.37;;;;;;;12.66;100.00;100759.06;5007778;28;20199;-75
2023/05/02 06:22:38;;;;;;;7.20;6.70;;;;;;;12.75;100.00;100752.91;5009460;28;20252;-76
2023/05/02 06:25:04;;;;;;;8.43;7.73;;;;;;;12.87;100.00;100765.75;5025709;28;20353;-75
2023/05/02 06:27:30;;;;;;;8.20;7.60;;;;;;;13.07;100.00;100759.47;5020778;28;20399;-77
2023/05/02 06:29:56;;;;;;;7.80;7.20;;;;;;;13.26;100.00;100768.78;5021872;28;20249;-76
2023/05/02 06:32:21;;;;;;;7.00;6.50;;;;;;;13.46;100.00;100782.44;5009178;28;20243;-75
2023/05/02 06:34:46;;;;;;;7.20;6.70;;;;;;;13.71;100.00;100785.56;5024911;28;20185;-76
2023/05/02 06:37:12;;;;;;;11.90;10.90;;;;;;;14.07;100.00;100792.84;5025903;28;20186;-77
2023/05/02 06:39:37;;;;;;;15.87;14.50;;;;;;;14.49;100.00;100790.44;5025710;28;20191;-75
2023/05/02 06:42:02;;;;;;;14.93;13.63;;;;;;;14.76;100.00;100793.47;5025867;28;20226;-77
2023/05/02 06:44:28;;;;;;;13.30;12.20;;;;;;;14.80;100.00;100792.53;5028116;28;20240;-77
2023/05/02 06:46:54;;;;;;;11.60;10.67;;;;;;;14.71;100.00;100797.91;5027186;28;20271;-77
2023/05/02 06:49:20;;;;;;;10.03;9.27;;;;;;;14.64;100.00;100803.19;5029498;28;20315;-76
2023/05/02 06:51:45;;;;;;;9.10;8.40;;;;;;;14.64;100.00;100808.41;5028027;28;20345;-77
2023/05/02 06:54:11;;;;;;;8.47;7.80;;;;;;;14.65;100.00;100809.28;5029151;28;20321;-77
2023/05/02 06:56:36;;;;;;;7.97;7.37;;;;;;;14.64;100.00;100825.78;5012812;28;20563;-76
2023/05/02 06:59:01;;;;;;;6.63;6.13;;;;;;;14.60;100.00;100821.50;5004315;28;20288;-77
2023/05/02 07:01:27;;;;;;;6.93;6.43;;;;;;;14.55;100.00;100828.53;5012401;28;20234;-76
2023/05/02 07:03:53;;;;;;;6.63;6.13;;;;;;;14.50;100.00;100828.59;5031068;28;20191;-76
2023/05/02 07:06:18;;;;;;;7.17;6.67;;;;;;;14.47;100.00;100828.66;5031071;28;20236;-76
2023/05/02 07:08:43;;;;;;;6.90;6.37;;;;;;;14.46;100.00;100824.31;5030617;28;20187;-76
2023/05/02 07:11:09;;;;;;;6.27;5.77;;;;;;;14.48;100.00;100836.47;5027204;28;20194;-76
2023/05/02 07:13:34;;;;;;;6.17;5.57;;;;;;;14.61;100.00;100836.25;5029714;28;20199;-77
2023/05/02 07:16:00;;;;;;;5.87;5.47;;;;;;;14.80;100.00;100826.41;5031074;28;20285;-76
2023/05/02 07:18:25;;;;;;;6.37;5.87;;;;;;;15.05;100.00;100826.81;5028192;28;20225;-76
2023/05/02 07:20:50;;;;;;;5.67;5.17;;;;;;;15.36;100.00;100826.22;5030499;28;20198;-76
2023/05/02 07:23:16;;;;;;;6.20;5.77;;;;;;;15.60;100.00;100829.19;5030347;28;20218;-76
2023/05/02 07:25:42;;;;;;;7.10;6.60;;;;;;;15.75;100.00;100827.13;5025267;28;20195;-75
2023/05/02 07:28:07;;;;;;;7.50;6.80;;;;;;;15.79;100.00;100828.78;5004491;28;20649;-76
2023/05/02 07:30:32;;;;;;;6.63;6.13;;;;;;;15.86;100.00;100833.03;5026555;28;20196;-77
2023/05/02 07:32:58;;;;;;;6.43;5.83;;;;;;;15.96;100.00;100842.38;5030094;28;20230;-76
2023/05/02 07:35:23;;;;;;;6.07;5.57;;;;;;;16.11;100.00;100835.06;5011098;28;20278;-75
2023/05/02 07:37:48;;;;;;;5.97;5.57;;;;;;;16.39;100.00;100831.81;5027592;28;20199;-76
2023/05/02 07:40:14;;;;;;;5.77;5.37;;;;;;;16.75;99.28;100831.78;5028719;28;20229;-76
2023/05/02 07:42:43;;;;;;;6.07;5.60;;;;;;;17.08;97.84;100834.44;5003300;28;20210;-78
2023/05/02 07:45:09;;;;;;;5.50;5.10;;;;;;;17.38;97.03;100826.63;5011971;28;20188;-77
2023/05/02 07:47:35;;;;;;;6.57;6.07;;;;;;;17.70;95.53;100837.03;5028907;28;20218;-78
2023/05/02 07:50:00;;;;;;;6.20;5.70;;;;;;;18.06;94.07;100837.69;5027115;28;20249;-76
2023/05/02 07:52:25;;;;;;;6.20;5.70;;;;;;;18.54;92.98;100833.53;5028382;28;20646;-77
2023/05/02 07:54:51;;;;;;;5.67;5.27;;;;;;;18.89;91.60;100834.09;5024085;28;20538;-76
2023/05/02 07:57:17;;;;;;;5.87;5.40;;;;;;;19.12;90.88;100832.47;5027145;28;20215;-76
2023/05/02 07:59:42;;;;;;;6.13;5.67;;;;;;;19.31;89.94;100842.25;5004223;28;20190;-77
2023/05/02 08:02:07;;;;;;;5.63;5.13;;;;;;;19.49;88.88;100840.75;5029859;28;20212;-75
2023/05/02 08:04:33;;;;;;;6.27;5.77;;;;;;;19.73;87.57;100841.59;5010100;28;20287;-77
2023/05/02 08:06:59;;;;;;;6.53;6.03;;;;;;;19.89;86.13;100841.88;5025004;28;20230;-75
2023/05/02 08:09:25;;;;;;;7.57;6.90;;;;;;;20.02;85.63;100842.25;5027385;28;20199;-75
2023/05/02 08:11:50;;;;;;;6.97;6.47;;;;;;;20.09;84.93;100845.50;5027376;28;20215;-77
2023/05/02 08:14:15;;;;;;;8.50;7.90;;;;;;;20.24;84.21;100844.00;5003480;28;20211;-76
2023/05/02 08:16:41;;;;;;;8.67;7.97;;;;;;;20.44;83.41;100844.97;5008365;28;20199;-76
2023/05/02 08:19:07;;;;;;;9.67;8.90;;;;;;;20.50;82.49;100848.19;5022360;28;20683;-76
2023/05/02 08:21:33;;;;;;;10.33;9.53;;;;;;;20.33;82.31;100843.66;5029060;28;20207;-76
2023/05/02 08:23:59;;;;;;;10.47;9.47;;;;;;;19.97;83.17;100844.19;5028097;28;20211;-76
2023/05/02 08:26:25;;;;;;;12.83;11.70;;;;;;;19.50;83.16;100850.34;5027919;28;20218;-75
2023/05/02 08:28:50;;;;;;;15.47;14.00;;;;;;;19.13;84.15;100842.03;5011916;28;20187;-76
2023/05/02 08:31:16;;;;;;;14.83;13.73;;;;;;;18.83;83.28;100850.03;5028032;28;20215;-75
2023/05/02 08:33:41;;;;;;;13.70;12.60;;;;;;;18.63;84.07;100855.09;5010453;28;20554;-76
2023/05/02 08:36:14;;;;;;;15.03;13.83;;;;;;;18.49;83.70;100864.28;5029194;28;20565;-77
2023/05/02 08:38:41;;;;;;;15.70;14.40;;;;;;;18.26;83.24;100851.94;5026744;28;20195;-76
2023/05/02 08:41:13;;;;;;;15.90;14.60;;;;;;;18.18;83.37;100861.78;5004080;28;20206;-78
2023/05/02 08:43:39;;;;;;;17.00;15.53;;;;;;;18.15;83.19;100869.75;5027342;28;20255;-77
2023/05/02 08:46:09;;;;;;;15.97;14.67;;;;;;;18.03;82.93;100863.13;5024576;28;20325;-76
2023/05/02 08:48:36;;;;;;;14.97;13.73;;;;;;;17.97;82.79;100866.78;5024741;28;20253;-75
2023/05/02 08:51:07;;;;;;;15.20;14.00;;;;;;;18.01;83.21;100875.41;5025510;28;20221;-75
2023/05/02 08:53:34;;;;;;;16.87;15.47;;;;;;;18.00;82.37;100868.47;5021683;28;20194;-76
2023/05/02 08:56:00;;;;;;;16.20;14.80;;;;;;;17.77;83.14;100876.06;5028631;28;20183;-76
2023/05/02 08:58:26;;;;;;;14.43;13.17;;;;;;;17.77;83.88;100875.22;5026176;28;20186;-77
2023/05/02 09:00:53;;;;;;;14.60;13.40;;;;;;;17.95;83.63;100881.66;5006703;28;20190;-77
2023/05/02 09:03:18;;;;;;;16.50;15.20;;;;;;;18.12;83.32;100883.78;5006059;28;20214;-76
2023/05/02 09:05:50;;;;;;;17.10;15.33;;;;;;;18.28;82.42;100879.78;5027108;28;20736;-76
2023/05/02 09:08:20;;;;;;;17.57;16.03;;;;;;;18.47;81.87;100883.56;5029765;28;20222;-76
2023/05/02 09:10:46;;;;;;;20.13;18.33;;;;;;;18.60;80.85;100887.53;5022643;28;20694;-75
2023/05/02 09:13:36;;;;;;;21.23;19.40;;;;;;;18.97;80.11;100880.22;5027867;28;20211;-76
2023/05/02 09:16:04;;;;;;;17.63;16.13;;;;;;;19.28;79.78;100877.34;5027303;28;20184;-76
2023/05/02 09:18:35;;;;;;;18.10;16.63;;;;;;;19.64;79.48;100876.06;5026930;28;20575;-76
2023/05/02 09:21:05;;;;;;;17.30;15.87;;;;;;;19.83;78.72;100873.56;5022031;28;20190;-76
2023/05/02 09:23:32;;;;;;;22.30;20.40;;;;;;;19.76;77.38;100872.97;5027711;28;20204;-75
2023/05/02 09:25:59;;;;;;;17.93;16.17;;;;;;;19.71;77.24;100881.94;5006093;28;20187;-75
2023/05/02 09:28:40;;;;;;;17.60;15.97;;;;;;;19.57;77.47;100887.72;5025692;28;20294;-77
2023/05/02 09:31:08;;;;;;;18.47;16.87;;;;;;;19.37;77.71;100883.16;4998835;28;20187;-77
2023/05/02 09:33:33;;;;;;;16.97;15.53;;;;;;;19.28;78.18;100887.84;5022985;28;20198;-77
2023/05/02 09:35:58;;;;;;;19.73;18.03;;;;;;;19.08;77.86;100878.06;5027777;28;20559;-75
2023/05/02 09:38:24;;;;;;;17.33;15.83;;;;;;;18.95;78.71;100887.28;5025526;28;20187;-75
2023/05/02 09:40:56;;;;;;;18.33;16.83;;;;;;;18.88;79.00;100881.34;5018139;28;20179;-75
2023/05/02 09:43:22;;;;;;;17.60;16.20;;;;;;;18.71;79.61;100893.28;5007508;28;20175;-76
2023/05/02 09:46:02;;;;;;;19.07;17.33;;;;;;;18.62;79.85;100890.09;5023414;28;20225;-76
2023/05/02 09:48:29;;;;;;;16.77;15.43;;;;;;;18.62;79.97;100887.47;5024726;28;20548;-76
2023/05/02 09:50:55;;;;;;;17.07;15.63;;;;;;;18.67;80.07;100896.88;5024064;28;20187;-76
2023/05/02 09:53:20;;;;;;;17.83;16.33;;;;;;;18.82;80.13;100886.78;5019333;28;20283;-76
2023/05/02 09:55:46;;;;;;;17.23;15.80;;;;;;;18.99;80.55;100878.38;5025113;28;20191;-76
2023/05/02 09:58:22;;;;;;;18.57;16.97;;;;;;;19.19;80.30;100890.81;5026221;28;20969;-76
2023/05/02 10:00:49;;;;;;;19.47;17.90;;;;;;;19.34;79.49;100887.66;5022475;28;20249;-76
2023/05/02 10:03:16;;;;;;;18.80;17.23;;;;;;;19.55;79.06;100897.41;5025457;28;20211;-76
2023/05/02 10:05:43;;;;;;;16.37;14.97;;;;;;;19.83;78.61;100891.13;5027732;28;20183;-74
2023/05/02 10:08:10;;;;;;;19.07;17.47;;;;;;;20.00;78.87;100890.50;5019283;28;20714;-76
2023/05/02 10:10:37;;;;;;;18.50;16.97;;;;;;;20.05;78.99;100892.03;5005909;28;20269;-76
2023/05/02 10:13:04;;;;;;;18.17;16.63;;;;;;;20.16;79.26;100891.59;5017756;28;20207;-77
2023/05/02 10:15:31;;;;;;;20.57;18.87;;;;;;;20.35;77.68;100894.34;5027510;28;20580;-76
2023/05/02 10:18:07;;;;;;;20.63;18.90;;;;;;;20.59;76.63;100893.41;5021236;28;20187;-77
2023/05/02 10:20:38;;;;;;;19.20;17.60;;;;;;;20.85;75.96;100887.09;5017596;28;21161;-75
2023/05/02 10:23:04;;;;;;;17.13;15.73;;;;;;;21.05;75.58;100893.28;5006925;28;20376;-76
2023/05/02 10:25:32;;;;;;;18.00;16.50;;;;;;;21.31;75.45;100879.00;5021446;28;20221;-75
2023/05/02 10:27:58;;;;;;;19.30;17.77;;;;;;;21.64;74.58;100881.03;5025382;28;20249;-77
2023/05/02 10:30:24;;;;;;;18.03;16.53;;;;;;;21.72;74.27;100878.03;5026738;28;20199;-76
2023/05/02 10:32:52;;;;;;;18.30;16.73;;;;;;;21.74;73.91;100879.69;5023276;28;20696;-76
2023/05/02 10:35:18;;;;;;;17.67;16.27;;;;;;;21.65;73.85;100874.00;5023488;28;20682;-77
2023/05/02 10:37:45;;;;;;;18.00;16.60;;;;;;;21.39;73.84;100876.84;5027567;28;20663;-76
2023/05/02 10:40:12;;;;;;;16.37;14.97;;;;;;;21.16;74.39;100876.13;5026585;28;20183;-76
2023/05/02 10:42:40;;;;;;;16.17;14.97;;;;;;;21.05;74.69;100870.44;5025664;28;20597;-75
2023/05/02 10:45:09;;;;;;;26.47;24.17;;;;;;;;;;5026333;28;20219;-77
2023/05/02 10:47:35;;;;;;;25.97;23.77;;;;;;;20.41;72.45;100873.09;5024788;28;20298;-76
2023/05/02 10:50:03;;;;;;;21.47;19.77;;;;;;;20.35;72.88;100878.59;5026340;28;20286;-79
2023/05/02 10:52:28;;;;;;;20.27;18.57;;;;;;;20.32;73.22;100875.22;5024232;28;20249;-77
2023/05/02 10:55:16;;;;;;;23.93;21.93;;;;;;;20.20;72.29;100866.94;5024902;28;20195;-77
2023/05/02 10:57:59;;;;;;;20.10;18.37;;;;;;;20.16;72.53;100870.59;5027399;28;20285;-76
2023/05/02 11:00:28;;;;;;;19.63;18.03;;;;;;;20.28;72.53;100876.25;5025551;28;20183;-76
2023/05/02 11:02:53;;;;;;;18.93;17.43;;;;;;;20.48;71.62;100870.22;5027399;28;20706;-76
2023/05/02 11:05:22;;;;;;;18.17;16.67;;;;;;;20.72;71.19;100863.09;5027935;28;20199;-75
2023/05/02 11:07:47;;;;;;;22.67;20.63;;;;;;;20.97;70.01;100868.16;5027916;28;20211;-76
2023/05/02 11:10:16;;;;;;;21.43;19.50;;;;;;;21.02;69.42;100866.19;5027064;28;20624;-76
2023/05/02 11:13:00;;;;;;;28.97;26.30;;;;;;;20.72;69.17;100860.44;5025124;28;20220;-76
2023/05/02 11:15:27;;;;;;;23.40;21.43;;;;;;;20.46;69.81;100862.38;5021396;28;20207;-76
2023/05/02 11:18:02;;;;;;;22.13;20.33;;;;;;;20.39;70.23;100864.41;5026928;28;20196;-75
2023/05/02 11:20:29;;;;;;;22.60;20.80;;;;;;;20.29;70.40;100862.19;5007428;28;20187;-76